createdAt,value
2023-02-18T00:01:43.299Z,34.42
2023-02-18T00:04:13.452Z,34.31
2023-02-18T00:06:42.001Z,34.76
2023-02-18T00:09:10.732Z,33.86
2023-02-18T00:11:39.978Z,34.12
2023-02-18T00:14:13.071Z,34.17
2023-02-18T00:16:42.995Z,33.53
2023-02-18T00:19:16.825Z,33.40
2023-02-18T00:21:45.322Z,33.69
2023-02-18T00:24:15.490Z,34.77
2023-02-18T00:26:43.506Z,35.37
2023-02-18T00:29:11.509Z,33.42
2023-02-18T00:31:40.754Z,33.62
2023-02-18T00:34:10.324Z,34.66
2023-02-18T00:36:38.425Z,34.03
2023-02-18T00:39:08.827Z,33.99
2023-02-18T00:41:37.013Z,33.57
2023-02-18T00:44:05.530Z,33.94
2023-02-18T00:46:35.395Z,33.92
2023-02-18T00:49:04.548Z,34.43
2023-02-18T00:51:33.886Z,34.51
2023-02-18T00:54:05.444Z,34.48
2023-02-18T00:56:34.453Z,33.94
2023-02-18T00:59:02.648Z,34.67
2023-02-18T01:01:31.562Z,34.60
2023-02-18T01:03:59.773Z,33.86
2023-02-18T01:06:28.342Z,34.66
2023-02-18T01:08:56.475Z,34.72
2023-02-18T01:11:24.730Z,34.46
2023-02-18T01:13:53.016Z,34.99
2023-02-18T01:16:23.733Z,35.14
2023-02-18T01:18:51.911Z,35.20
2023-02-18T01:21:20.013Z,35.27
2023-02-18T01:23:49.590Z,34.70
2023-02-18T01:26:17.570Z,35.79
2023-02-18T01:28:46.222Z,35.50
2023-02-18T01:31:14.860Z,36.57
2023-02-18T01:33:46.178Z,36.05
2023-02-18T01:36:15.070Z,35.51
2023-02-18T01:38:43.196Z,34.90
2023-02-18T01:41:11.743Z,35.23
2023-02-18T01:43:39.910Z,34.68
2023-02-18T01:46:19.499Z,35.08
2023-02-18T01:48:56.316Z,35.32
2023-02-18T01:51:28.282Z,35.61
2023-02-18T01:54:06.994Z,35.31
2023-02-18T01:56:46.375Z,35.94
2023-02-18T01:59:17.979Z,35.19
2023-02-18T02:01:46.549Z,35.49
2023-02-18T02:04:14.809Z,35.82
2023-02-18T02:06:44.143Z,35.38
2023-02-18T02:09:15.525Z,34.36
2023-02-18T02:12:23.995Z,35.45
2023-02-18T02:15:24.404Z,36.48
2023-02-18T02:18:32.557Z,35.13
2023-02-18T02:21:23.529Z,35.22
2023-02-18T02:24:26.080Z,34.46
2023-02-18T02:27:00.418Z,33.98
2023-02-18T02:29:38.611Z,33.31
2023-02-18T02:32:16.675Z,32.97
2023-02-18T02:35:12.082Z,33.36
2023-02-18T02:37:55.798Z,33.93
2023-02-18T02:40:27.409Z,33.97
2023-02-18T02:43:15.576Z,33.92
2023-02-18T02:46:09.640Z,34.53
2023-02-18T02:48:57.023Z,34.62
2023-02-18T02:51:27.342Z,34.65
2023-02-18T02:54:13.791Z,34.15
2023-02-18T02:56:41.925Z,34.71
2023-02-18T02:59:14.916Z,34.90
2023-02-18T03:02:04.089Z,35.30
2023-02-18T03:04:37.171Z,35.33
2023-02-18T03:07:18.964Z,36.17
2023-02-18T03:10:05.672Z,35.75
2023-02-18T03:12:58.020Z,36.11
2023-02-18T03:16:07.296Z,36.22
2023-02-18T03:18:45.976Z,36.56
2023-02-18T03:21:53.373Z,36.84
2023-02-18T03:24:30.349Z,35.00
2023-02-18T03:30:23.161Z,44.89
2023-02-18T03:32:56.321Z,40.04
2023-02-18T03:35:24.687Z,39.59
2023-02-18T03:38:05.651Z,40.92
2023-02-18T03:40:34.456Z,38.59
2023-02-18T03:43:03.311Z,38.61
2023-02-18T03:45:33.060Z,39.09
2023-02-18T03:48:03.488Z,39.22
2023-02-18T03:50:31.650Z,39.12
2023-02-18T03:52:59.724Z,38.72
2023-02-18T03:55:28.286Z,38.89
2023-02-18T03:57:56.318Z,38.41
2023-02-18T04:00:24.954Z,38.48
2023-02-18T04:02:53.026Z,38.44
2023-02-18T04:05:21.137Z,37.47
2023-02-18T04:07:49.780Z,39.06
2023-02-18T04:10:23.130Z,38.95
2023-02-18T04:12:51.136Z,37.73
2023-02-18T04:15:19.179Z,37.67
2023-02-18T04:17:47.224Z,37.64
2023-02-18T04:20:17.949Z,38.44
2023-02-18T04:22:46.015Z,38.33
2023-02-18T04:25:14.503Z,37.50
2023-02-18T04:27:42.442Z,37.59
2023-02-18T04:30:11.902Z,37.06
2023-02-18T04:32:42.774Z,37.19
2023-02-18T04:35:10.698Z,38.00
2023-02-18T04:37:38.825Z,37.59
2023-02-18T04:40:07.920Z,37.00
2023-02-18T04:42:36.193Z,36.91
2023-02-18T04:45:05.260Z,36.46
2023-02-18T04:47:34.016Z,35.99
2023-02-18T04:50:02.643Z,34.82
2023-02-18T04:52:30.858Z,34.76
2023-02-18T04:54:58.903Z,35.50
2023-02-18T04:57:27.039Z,34.49
2023-02-18T04:59:56.334Z,34.73
2023-02-18T05:02:24.883Z,35.45
2023-02-18T05:04:56.043Z,35.82
2023-02-18T05:07:24.583Z,35.37
2023-02-18T05:09:52.542Z,34.49
2023-02-18T05:12:20.529Z,33.56
2023-02-18T05:14:48.806Z,33.73
2023-02-18T05:17:16.879Z,34.55
2023-02-18T05:19:44.958Z,34.25
2023-02-18T05:22:13.639Z,35.28
2023-02-18T05:24:41.772Z,34.84
2023-02-18T05:27:09.923Z,34.25
2023-02-18T05:29:38.981Z,34.91
2023-02-18T05:32:07.006Z,36.10
2023-02-18T05:34:34.969Z,36.38
2023-02-18T05:37:03.702Z,35.93
2023-02-18T05:39:31.807Z,36.27
2023-02-18T05:42:00.314Z,35.91
2023-02-18T05:44:34.180Z,36.47
2023-02-18T05:47:10.331Z,36.74
2023-02-18T05:49:43.940Z,35.41
2023-02-18T05:52:13.016Z,35.22
2023-02-18T05:54:41.108Z,35.55
2023-02-18T05:57:09.078Z,35.88
2023-02-18T05:59:37.140Z,35.84
2023-02-18T06:02:05.163Z,34.79
2023-02-18T06:04:33.897Z,35.27
2023-02-18T06:07:02.330Z,35.27
2023-02-18T06:09:30.852Z,34.44
2023-02-18T06:12:00.807Z,34.56
2023-02-18T06:14:31.323Z,34.78
2023-02-18T06:17:00.363Z,34.39
2023-02-18T06:19:28.306Z,34.68
2023-02-18T06:21:56.431Z,35.48
2023-02-18T06:24:24.631Z,35.19
2023-02-18T06:26:53.818Z,35.75
2023-02-18T06:29:22.422Z,35.25
2023-02-18T06:31:50.549Z,35.01
2023-02-18T06:34:20.273Z,35.15
2023-02-18T06:36:48.648Z,34.84
2023-02-18T06:39:18.988Z,34.67
2023-02-18T06:41:47.380Z,35.24
2023-02-18T06:44:16.996Z,35.28
2023-02-18T06:46:45.139Z,35.77
2023-02-18T06:49:13.517Z,35.67
2023-02-18T06:51:43.116Z,36.02
2023-02-18T06:54:11.516Z,36.40
2023-02-18T06:56:40.772Z,36.37
2023-02-18T06:59:08.937Z,35.94
2023-02-18T09:09:29.166Z,62.22
2023-02-18T09:12:01.177Z,51.30
2023-02-18T09:14:31.042Z,51.10
2023-02-18T09:16:59.118Z,49.62
2023-02-18T09:19:27.845Z,48.58
2023-02-18T09:21:59.169Z,47.82
2023-02-18T09:24:29.755Z,48.01
2023-02-18T09:26:57.758Z,49.29
2023-02-18T09:29:25.837Z,49.48
2023-02-18T09:31:54.127Z,50.84
2023-02-18T09:34:23.022Z,50.75
2023-02-18T09:36:51.326Z,50.71
2023-02-18T09:39:20.394Z,51.33
2023-02-18T09:41:50.554Z,52.12
2023-02-18T09:44:34.557Z,51.67
2023-02-18T09:47:12.151Z,51.74
2023-02-18T09:49:41.654Z,51.57
2023-02-18T09:52:14.263Z,50.98
2023-02-18T09:54:42.576Z,52.08
2023-02-18T09:57:18.543Z,52.95
2023-02-18T09:59:46.581Z,52.77
2023-02-18T10:02:17.549Z,51.24
2023-02-18T10:04:52.317Z,50.21
2023-02-18T10:07:33.512Z,50.63
2023-02-18T10:10:04.097Z,48.38
2023-02-18T10:12:34.252Z,47.29
2023-02-18T10:15:03.345Z,45.84
2023-02-18T10:17:37.825Z,42.82
2023-02-18T10:20:08.457Z,42.09
2023-02-18T10:22:37.103Z,41.64
2023-02-18T10:25:05.968Z,41.24
2023-02-18T10:27:37.600Z,41.34
2023-02-18T10:30:15.029Z,41.56
2023-02-18T10:32:44.312Z,41.56
2023-02-18T10:35:20.628Z,42.33
2023-02-18T10:37:57.147Z,42.28
2023-02-18T10:40:28.050Z,42.84
2023-02-18T10:43:14.496Z,43.03
2023-02-18T10:45:57.102Z,42.56
2023-02-18T10:48:52.703Z,42.62
2023-02-18T10:51:24.734Z,43.79
2023-02-18T10:53:53.331Z,43.66
2023-02-18T10:56:43.889Z,43.69
2023-02-18T10:59:25.424Z,44.34
2023-02-18T11:02:01.796Z,43.65
2023-02-18T11:04:41.220Z,43.36
2023-02-18T11:07:17.407Z,43.04
2023-02-18T11:10:18.457Z,42.75
2023-02-18T11:12:49.710Z,42.89
2023-02-18T11:15:24.741Z,42.31
2023-02-18T11:17:55.386Z,41.53
2023-02-18T11:20:31.349Z,41.32
2023-02-18T11:23:00.510Z,41.50
2023-02-18T11:25:33.492Z,40.30
2023-02-18T11:28:06.505Z,39.59
2023-02-18T11:30:41.976Z,38.86
2023-02-18T11:33:16.287Z,38.11
2023-02-18T11:35:55.126Z,37.97
2023-02-18T11:38:24.410Z,37.90
2023-02-18T11:41:03.926Z,38.01
2023-02-18T11:43:32.965Z,38.79
2023-02-18T11:46:21.704Z,38.52
2023-02-18T11:48:50.452Z,38.51
2023-02-18T11:51:19.862Z,39.23
2023-02-18T11:54:04.917Z,38.40
2023-02-18T11:56:35.941Z,37.95
2023-02-18T11:59:04.360Z,37.26
2023-02-18T12:02:09.795Z,36.51
2023-02-18T12:04:43.994Z,35.79
2023-02-18T12:07:23.609Z,35.29
2023-02-18T12:10:12.692Z,35.02
2023-02-18T12:12:52.473Z,36.22
2023-02-18T12:15:41.575Z,38.58
2023-02-18T12:18:10.151Z,38.42
2023-02-18T12:20:49.384Z,38.80
2023-02-18T12:23:37.166Z,39.03
2023-02-18T12:26:30.430Z,38.52
2023-02-18T12:29:05.833Z,37.48
2023-02-18T12:31:52.702Z,37.82
2023-02-18T12:34:44.119Z,37.94
2023-02-18T12:37:47.209Z,37.01
2023-02-18T12:40:43.194Z,36.26
2023-02-18T12:43:18.721Z,36.17
2023-02-18T12:46:02.075Z,35.67
2023-02-18T12:48:49.144Z,35.31
2023-02-18T12:52:04.482Z,35.79
2023-02-18T12:54:52.257Z,35.21
2023-02-18T12:57:30.550Z,35.02
2023-02-18T13:00:23.032Z,36.92
2023-02-18T13:03:33.063Z,36.43
2023-02-18T13:06:11.800Z,37.42
2023-02-18T13:09:04.908Z,38.72
2023-02-18T13:12:05.974Z,40.91
2023-02-18T13:14:45.546Z,41.31
2023-02-18T13:17:13.741Z,40.82
2023-02-18T13:19:45.023Z,41.41
2023-02-18T13:22:13.202Z,40.95
2023-02-18T13:24:43.557Z,41.38
2023-02-18T13:27:15.403Z,41.53
2023-02-18T13:30:05.393Z,41.21
2023-02-18T13:32:59.683Z,41.05
2023-02-18T13:36:21.928Z,41.31
2023-02-18T13:39:01.405Z,40.50
2023-02-18T13:41:30.274Z,40.29
2023-02-18T13:44:02.318Z,40.37
2023-02-18T13:46:30.799Z,40.14
2023-02-18T13:49:02.874Z,40.21
2023-02-18T13:51:41.097Z,40.57
2023-02-18T13:54:12.110Z,40.06
2023-02-18T13:56:42.311Z,39.36
2023-02-18T13:59:13.069Z,39.31
2023-02-18T14:01:51.329Z,39.18
2023-02-18T14:05:14.798Z,39.79
2023-02-18T14:07:53.534Z,40.36
2023-02-18T14:10:22.503Z,39.93
2023-02-18T14:12:56.688Z,39.66
2023-02-18T14:15:25.092Z,39.57
2023-02-18T14:17:59.119Z,38.97
2023-02-18T14:21:03.682Z,38.60
2023-02-18T14:23:43.262Z,39.34
2023-02-18T14:26:14.133Z,38.95
2023-02-18T14:28:49.102Z,38.99
2023-02-18T14:31:17.583Z,39.05
2023-02-18T14:34:04.790Z,39.03
2023-02-18T14:36:40.247Z,39.09
2023-02-18T14:39:25.088Z,39.27
2023-02-18T14:41:55.730Z,38.71
2023-02-18T14:44:51.411Z,38.14
2023-02-18T14:47:28.835Z,38.33
2023-02-18T14:49:59.883Z,38.19
2023-02-18T14:52:33.564Z,38.30
2023-02-18T14:55:03.338Z,38.67
2023-02-18T14:58:06.550Z,38.38
2023-02-18T15:00:41.223Z,38.32
2023-02-18T15:03:17.521Z,38.59
2023-02-18T15:05:45.972Z,37.91
2023-02-18T15:08:21.108Z,37.75
2023-02-18T15:10:59.541Z,38.12
2023-02-18T15:13:36.323Z,37.84
2023-02-18T15:16:06.765Z,38.18
2023-02-18T15:18:44.934Z,37.81
2023-02-18T15:21:40.351Z,37.52
2023-02-18T15:24:34.828Z,38.07
2023-02-18T15:27:12.535Z,38.48
2023-02-18T15:29:40.760Z,38.11
2023-02-18T15:32:16.291Z,38.14
2023-02-18T15:34:45.350Z,37.94
2023-02-18T15:37:14.191Z,37.30
2023-02-18T15:39:42.593Z,37.00
2023-02-18T15:42:30.443Z,36.69
2023-02-18T15:45:03.741Z,36.70
2023-02-18T15:47:32.110Z,37.43
2023-02-18T15:50:01.856Z,37.27
2023-02-18T15:52:32.146Z,37.00
2023-02-18T15:55:14.904Z,36.74
2023-02-18T15:57:43.345Z,36.48
2023-02-18T16:00:30.715Z,36.46
2023-02-18T16:03:03.912Z,36.35
2023-02-18T16:05:37.935Z,35.94
2023-02-18T16:08:07.370Z,36.10
2023-02-18T16:10:42.638Z,36.49
2023-02-18T16:13:14.931Z,36.45
2023-02-18T16:15:45.047Z,36.31
2023-02-18T16:18:27.918Z,36.06
2023-02-18T16:20:58.921Z,36.75
2023-02-18T16:23:32.394Z,36.80
2023-02-18T16:26:29.919Z,36.03
2023-02-18T16:29:38.202Z,36.05
2023-02-18T16:32:07.303Z,36.07
2023-02-18T16:34:36.218Z,35.79
2023-02-18T16:37:23.238Z,36.19
2023-02-18T16:39:54.789Z,36.32
2023-02-18T16:42:24.749Z,36.48
2023-02-18T16:44:53.229Z,36.66
2023-02-18T16:47:21.257Z,36.70
2023-02-18T16:49:50.454Z,36.28
2023-02-18T16:52:19.862Z,36.24
2023-02-18T16:54:49.208Z,35.74
2023-02-18T16:57:17.236Z,35.80
2023-02-18T16:59:45.920Z,35.91
2023-02-18T17:02:18.030Z,35.54
2023-02-18T17:04:46.976Z,35.54
2023-02-18T17:07:15.046Z,35.27
2023-02-18T17:09:43.149Z,35.26
2023-02-18T17:12:12.810Z,35.40
2023-02-18T17:14:41.347Z,35.18
2023-02-18T17:17:14.080Z,35.25
2023-02-18T17:19:42.064Z,35.90
2023-02-18T17:22:12.601Z,35.22
2023-02-18T17:24:40.580Z,35.03
2023-02-18T17:27:10.946Z,35.32
2023-02-18T17:29:39.053Z,34.82
2023-02-18T17:32:08.226Z,34.95
2023-02-18T17:34:41.104Z,34.57
2023-02-18T17:37:12.762Z,34.41
2023-02-18T17:39:40.695Z,34.35
2023-02-18T17:42:14.970Z,34.19
2023-02-18T17:44:45.200Z,33.63
2023-02-18T17:47:13.374Z,34.02
2023-02-18T17:49:41.454Z,34.22
2023-02-18T17:52:23.158Z,35.10
2023-02-18T17:54:51.240Z,35.14
2023-02-18T17:57:19.412Z,35.31
2023-02-18T17:59:47.512Z,35.20
2023-02-18T18:02:26.392Z,34.80
2023-02-18T18:04:55.552Z,34.56
2023-02-18T18:07:25.044Z,34.22
2023-02-18T18:09:55.626Z,34.40
2023-02-18T18:12:24.095Z,34.45
2023-02-18T18:14:52.987Z,34.72
2023-02-18T18:17:21.182Z,34.33
2023-02-18T18:19:49.539Z,34.82
2023-02-18T18:22:17.734Z,34.51
2023-02-18T18:24:45.899Z,34.23
2023-02-18T18:27:14.312Z,34.03
2023-02-18T18:29:42.537Z,33.70
2023-02-18T18:32:11.224Z,33.79
2023-02-18T18:34:39.321Z,33.96
2023-02-18T18:37:08.738Z,33.77
2023-02-18T18:39:37.405Z,33.92
2023-02-18T18:42:06.788Z,34.26
2023-02-18T18:44:35.638Z,34.05
2023-02-18T18:47:04.265Z,34.50
2023-02-18T18:49:33.359Z,34.55
2023-02-18T18:52:01.487Z,34.20
2023-02-18T18:54:29.662Z,34.29
2023-02-18T18:56:58.201Z,34.39
2023-02-18T18:59:26.171Z,34.54
2023-02-18T19:01:54.392Z,34.24
2023-02-18T19:04:22.649Z,34.32
2023-02-18T19:06:51.156Z,34.11
2023-02-18T19:09:19.471Z,34.08
2023-02-18T19:11:47.735Z,33.86
2023-02-18T19:14:15.994Z,33.67
2023-02-18T19:16:56.158Z,33.96
2023-02-18T19:19:24.818Z,34.37
2023-02-18T19:21:54.069Z,33.89
2023-02-18T19:24:22.349Z,33.90
2023-02-18T19:26:51.150Z,34.09
2023-02-18T19:29:23.477Z,33.74
2023-02-18T19:31:51.591Z,33.91
2023-02-18T19:34:24.376Z,33.51
2023-02-18T19:36:52.546Z,33.40
2023-02-18T19:39:23.451Z,33.68
2023-02-18T19:41:51.580Z,33.69
2023-02-18T19:44:20.055Z,33.83
2023-02-18T19:46:48.295Z,33.75
2023-02-18T19:49:16.603Z,33.37
2023-02-18T19:51:45.240Z,33.59
2023-02-18T19:54:13.728Z,33.23
2023-02-18T19:56:42.424Z,33.04
2023-02-18T19:59:10.531Z,33.14
2023-02-18T20:01:39.656Z,32.96
2023-02-18T20:04:08.113Z,32.94
2023-02-18T20:06:36.206Z,32.51
2023-02-18T20:09:05.034Z,32.47
2023-02-18T20:11:35.357Z,32.56
2023-02-18T20:14:04.409Z,32.01
2023-02-18T20:16:32.752Z,31.70
2023-02-18T20:19:01.062Z,31.85
2023-02-18T20:21:30.789Z,31.83
2023-02-18T20:24:01.786Z,31.80
2023-02-18T20:26:30.177Z,31.90
2023-02-18T20:28:58.833Z,31.59
2023-02-18T20:31:27.436Z,31.98
2023-02-18T20:33:56.843Z,31.57
2023-02-18T20:36:25.343Z,31.62
2023-02-18T20:38:53.427Z,31.42
2023-02-18T20:41:21.610Z,30.95
2023-02-18T20:43:50.189Z,30.89
2023-02-18T20:46:21.116Z,30.56
2023-02-18T20:48:49.456Z,30.66
2023-02-18T20:51:19.330Z,30.58
2023-02-18T20:53:47.775Z,30.75
2023-02-18T20:56:15.970Z,30.85
2023-02-18T20:58:44.961Z,31.12
2023-02-18T21:01:14.373Z,31.04
2023-02-18T21:03:42.675Z,31.03
2023-02-18T21:06:13.907Z,30.71
2023-02-18T21:08:44.956Z,30.78
2023-02-18T21:11:15.915Z,31.26
2023-02-18T21:16:00.628Z,36.29
2023-02-18T21:18:30.838Z,33.57
2023-02-18T21:21:01.677Z,33.00
2023-02-18T21:23:33.821Z,32.90
2023-02-18T21:26:18.370Z,32.65
2023-02-18T21:28:48.189Z,32.27
2023-02-18T21:31:25.065Z,32.64
2023-02-18T21:33:53.195Z,32.54
2023-02-18T21:36:21.393Z,32.66
2023-02-18T21:38:53.432Z,32.40
2023-02-18T21:41:22.213Z,32.21
2023-02-18T21:43:50.754Z,32.06
2023-02-18T21:46:26.613Z,32.31
2023-02-18T21:49:07.032Z,32.52
2023-02-18T21:51:56.370Z,32.81
2023-02-18T21:54:41.569Z,32.38
2023-02-18T21:57:11.977Z,32.35
2023-02-18T21:59:40.896Z,32.57
2023-02-18T22:02:38.592Z,32.66
2023-02-18T22:05:08.739Z,32.85
2023-02-18T22:07:37.508Z,33.07
2023-02-18T22:10:06.222Z,33.05
2023-02-18T22:12:34.926Z,32.86
2023-02-18T22:15:08.384Z,33.04
2023-02-18T22:17:36.900Z,32.86
2023-02-18T22:20:06.081Z,32.93
2023-02-18T22:22:34.157Z,33.05
2023-02-18T22:25:02.495Z,32.85
2023-02-18T22:27:30.889Z,32.88
2023-02-18T22:30:00.441Z,33.09
2023-02-18T22:32:29.449Z,33.32
2023-02-18T22:34:57.542Z,33.51
2023-02-18T22:37:25.797Z,33.35
2023-02-18T22:39:54.054Z,33.74
2023-02-18T22:42:22.963Z,33.68
2023-02-18T22:44:50.918Z,33.34
2023-02-18T22:47:19.071Z,33.21
2023-02-18T22:49:47.600Z,33.03
2023-02-18T22:52:15.595Z,33.59
2023-02-18T22:54:44.050Z,33.18
2023-02-18T22:57:15.787Z,32.84
2023-02-18T22:59:44.062Z,32.66
2023-02-18T23:02:12.240Z,32.27
2023-02-18T23:04:41.903Z,32.83
2023-02-18T23:07:11.581Z,32.94
2023-02-18T23:09:40.957Z,32.69
2023-02-18T23:12:09.117Z,33.58
2023-02-18T23:14:39.459Z,33.56
2023-02-18T23:17:14.697Z,33.82
2023-02-18T23:19:50.135Z,34.11
2023-02-18T23:22:30.403Z,34.32
2023-02-18T23:24:58.981Z,34.21
2023-02-18T23:27:27.564Z,34.51
2023-02-18T23:29:56.673Z,34.07
2023-02-18T23:32:25.243Z,33.60
2023-02-18T23:34:53.928Z,33.39
2023-02-18T23:37:43.854Z,33.70
2023-02-18T23:40:13.925Z,33.92
2023-02-18T23:42:42.644Z,33.63
2023-02-18T23:45:10.729Z,33.67
2023-02-18T23:47:38.973Z,33.75
2023-02-18T23:50:07.284Z,33.34
2023-02-18T23:52:35.581Z,33.64
2023-02-18T23:55:04.289Z,33.65
2023-02-18T23:57:35.047Z,33.64
